TimeMDT,TemperatureF,Dew PointF,Humidity,Sea Level PressureIn,VisibilityMPH,Wind Direction,Wind SpeedMPH,Gust SpeedMPH,PrecipitationIn,Events,Conditions,WindDirDegrees,DateUTC
12:52 AM,46.9,44.1,90,30.10,-9999.0,North,3.5,-,N/A,,Unknown,350,2013-05-15 06:52:00
1:52 AM,46.0,44.1,93,30.11,-9999.0,Calm,Calm,-,N/A,,Unknown,0,2013-05-15 07:52:00
2:52 AM,45.0,43.0,93,30.11,-9999.0,North,3.5,-,N/A,,Unknown,360,2013-05-15 08:52:00
3:52 AM,44.1,42.1,93,30.11,-9999.0,Calm,Calm,-,N/A,,Unknown,0,2013-05-15 09:52:00
4:52 AM,43.0,42.1,97,30.11,-9999.0,North,3.5,-,N/A,,Unknown,360,2013-05-15 10:52:00
5:52 AM,42.1,41.0,96,30.12,-9999.0,North,3.5,-,N/A,,Unknown,350,2013-05-15 11:52:00
6:52 AM,42.1,39.9,92,30.11,-9999.0,NNW,4.6,-,N/A,,Unknown,340,2013-05-15 12:52:00
7:52 AM,44.1,41.0,89,30.12,-9999.0,Calm,Calm,-,N/A,,Unknown,0,2013-05-15 13:52:00
8:52 AM,46.9,42.1,83,30.11,-9999.0,Calm,Calm,-,N/A,,Unknown,0,2013-05-15 14:52:00
9:52 AM,53.1,41.0,64,30.08,-9999.0,Calm,Calm,-,N/A,,Unknown,0,2013-05-15 15:52:00
10:52 AM,57.0,41.0,55,30.05,-9999.0,Calm,Calm,-,N/A,,Unknown,0,2013-05-15 16:52:00
11:52 AM,59.0,42.1,53,30.01,-9999.0,Calm,Calm,-,N/A,,Unknown,0,2013-05-15 17:52:00
12:52 PM,63.0,42.1,46,29.98,-9999.0,Calm,Calm,-,N/A,,Unknown,0,2013-05-15 18:52:00
1:52 PM,64.0,44.1,48,29.95,-9999.0,South,9.2,16.1,N/A,,Unknown,170,2013-05-15 19:52:00
2:52 PM,64.9,46.0,50,29.94,-9999.0,SSE,6.9,-,N/A,,Unknown,160,2013-05-15 20:52:00
3:52 PM,68.0,44.1,42,29.91,-9999.0,SSE,5.8,-,N/A,,Unknown,150,2013-05-15 21:52:00
4:52 PM,71.1,45.0,39,29.89,-9999.0,Variable,4.6,-,N/A,,Unknown,0,2013-05-15 22:52:00
5:52 PM,70.0,43.0,38,29.89,-9999.0,South,5.8,-,N/A,,Unknown,170,2013-05-15 23:52:00
6:52 PM,63.0,45.0,52,29.89,-9999.0,Calm,Calm,-,N/A,,Unknown,0,2013-05-16 00:52:00
7:52 PM,60.1,48.0,64,29.89,-9999.0,Calm,Calm,-,N/A,,Unknown,0,2013-05-16 01:52:00
8:52 PM,55.9,48.0,75,29.90,-9999.0,Calm,Calm,-,N/A,,Unknown,0,2013-05-16 02:52:00
9:52 PM,53.1,48.0,83,29.91,-9999.0,Calm,Calm,-,N/A,,Unknown,0,2013-05-16 03:52:00
10:52 PM,51.1,46.9,86,29.93,-9999.0,Calm,Calm,-,N/A,,Unknown,0,2013-05-16 04:52:00
11:52 PM,50.0,46.9,89,29.94,-9999.0,Calm,Calm,-,N/A,,Unknown,0,2013-05-16 05:52:00